Time;durP1;ratioP1;P1;durP2;ratioP2;P2;SDS_P1;SDS_P2;PMS_P1;PMS_P2;Temp;Humidity;BMP_temperature;BMP_pressure;BME280_temperature;BME280_humidity;BME280_pressure;Samples;Min_cycle;Max_cycle;Signal;HPM_P1;HPM_P2
2023/03/27 00:07:12;;;;;;;0.57;0.20;;;;;;;;;;20905151;28;20224;-69
2023/03/27 00:17:14;;;;;;;1.60;0.67;;;;;;;;;;20904898;28;20213;-69
2023/03/27 00:27:15;;;;;;;2.23;0.90;;;;;;;;;;20869816;28;20232;-68
2023/03/27 00:37:17;;;;;;;1.67;1.13;;;;;;;;;;20902888;28;20218;-67
2023/03/27 00:47:21;;;;;;;1.20;0.77;;;;;;;;;;20885450;28;20202;-68
2023/03/27 00:57:24;;;;;;;1.23;0.57;;;;;;;;;;20868291;28;20279;-69
2023/03/27 01:07:27;;;;;;;0.50;0.40;;;;;;;;;;20865437;28;20198;-70
2023/03/27 01:17:29;;;;;;;2.27;0.57;;;;;;;;;;20883779;28;20206;-70
2023/03/27 01:27:43;;;;;;;2.27;0.80;;;;;;;;;;20899633;28;20849;-69
2023/03/27 01:38:06;;;;;;;1.13;0.60;;;8.50;99.90;;;;;;20881025;28;20213;-69
2023/03/27 01:48:34;;;;;;;2.53;0.70;;;8.30;99.90;;;;;;20881202;28;20214;-70
2023/03/27 01:58:39;;;;;;;4.33;0.77;;;;;;;;;;20880195;28;20205;-69
2023/03/27 02:08:44;;;;;;;5.13;0.90;;;8.10;99.90;;;;;;20881544;28;20213;-69
2023/03/27 02:18:57;;;;;;;2.57;0.93;;;7.90;99.90;;;;;;20886819;28;20275;-70
2023/03/27 02:29:18;;;;;;;0.87;0.30;;;;;;;;;;20878805;28;20287;-69
2023/03/27 02:39:30;;;;;;;1.10;0.30;;;;;;;;;;20878199;28;20255;-70
2023/03/27 02:49:37;;;;;;;0.63;0.37;;;7.80;99.90;;;;;;20894381;28;20281;-70
2023/03/27 02:59:43;;;;;;;1.00;0.40;;;;;;;;;;20893149;28;20197;-69
2023/03/27 03:09:45;;;;;;;1.90;0.40;;;;;;;;;;20894297;28;20214;-70
2023/03/27 03:19:48;;;;;;;2.83;0.80;;;;;;;;;;20893451;28;20218;-70
2023/03/27 03:29:50;;;;;;;2.23;0.50;;;;;;;;;;20909626;28;20716;-70
2023/03/27 03:40:00;;;;;;;2.43;0.83;;;;;;;;;;20886257;28;20221;-69
2023/03/27 03:50:02;;;;;;;2.77;0.60;;;;;;;;;;20906648;28;20283;-69
2023/03/27 04:00:13;;;;;;;1.67;0.50;;;;;;;;;;20870787;28;20194;-69
2023/03/27 04:10:26;;;;;;;2.73;0.60;;;7.10;99.90;;;;;;20886739;28;20236;-69
2023/03/27 04:20:32;;;;;;;0.63;0.23;;;;;;;;;;20884580;28;20225;-68
2023/03/27 04:30:35;;;;;;;0.97;0.13;;;;;;;;;;20869853;28;20302;-69
2023/03/27 04:40:57;;;;;;;1.10;0.50;;;;;;;;;;20873326;28;20225;-69
2023/03/27 04:50:59;;;;;;;0.57;0.23;;;;;;;;;;20901250;28;21012;-71
2023/03/27 05:01:11;;;;;;;0.87;0.53;;;;;;;;;;20883588;28;20262;-69
2023/03/27 05:11:31;;;;;;;0.80;0.57;;;;;;;;;;20900819;28;20210;-70
2023/03/27 05:21:33;;;;;;;1.80;0.50;;;;;;;;;;20878941;28;20222;-70
2023/03/27 05:31:36;;;;;;;0.37;0.30;;;;;;;;;;20878911;28;20218;-71
2023/03/27 05:41:58;;;;;;;0.77;0.47;;;;;;;;;;20889242;28;20221;-70
2023/03/27 05:52:00;;;;;;;2.07;0.30;;;;;;;;;;20884841;28;20222;-70
2023/03/27 06:02:02;;;;;;;2.13;0.80;;;;;;;;;;20880752;28;20233;-70
2023/03/27 06:12:17;;;;;;;1.67;0.47;;;;;;;;;;20895551;28;20282;-71
2023/03/27 06:22:20;;;;;;;2.20;0.40;;;;;;;;;;20896159;28;20232;-71
2023/03/27 06:32:24;;;;;;;1.03;0.33;;;;;;;;;;20895242;28;20279;-70
2023/03/27 06:42:27;;;;;;;1.57;0.60;;;;;;;;;;20894535;28;20202;-70
2023/03/27 06:52:35;;;;;;;1.27;0.40;;;;;;;;;;20893809;28;20367;-71
2023/03/27 07:03:03;;;;;;;0.83;0.40;;;;;;;;;;20875287;28;20218;-71
2023/03/27 07:13:21;;;;;;;2.93;0.47;;;;;;;;;;20892487;28;20221;-70
2023/03/27 07:23:23;;;;;;;2.97;0.70;;;;;;;;;;20890856;28;20202;-71
2023/03/27 07:33:37;;;;;;;1.10;0.50;;;;;;;;;;20890330;28;20264;-71
2023/03/27 07:43:39;;;;;;;2.20;0.57;;;;;;;;;;20907759;28;20206;-71
2023/03/27 07:53:42;;;;;;;2.80;0.30;;;;;;;;;;20888498;28;20236;-71
2023/03/27 08:03:51;;;;;;;0.60;0.33;;;;;;;;;;20888037;28;20597;-71
2023/03/27 08:13:54;;;;;;;1.83;0.73;;;;;;;;;;20887377;28;20213;-70
2023/03/27 08:23:57;;;;;;;3.40;0.63;;;;;;;;;;20904142;28;20210;-71
2023/03/27 08:34:08;;;;;;;1.77;0.50;;;;;;;;;;20903042;28;20587;-71
2023/03/27 08:44:20;;;;;;;0.43;0.30;;;;;;;;;;20903939;28;20201;-73
2023/03/27 08:54:27;;;;;;;0.77;0.53;;;;;;;;;;20887757;28;20248;-71
2023/03/27 09:04:30;;;;;;;2.43;0.37;;;;;;;;;;20885236;28;20228;-71
2023/03/27 09:14:35;;;;;;;1.10;0.43;;;;;;;;;;20884120;28;20217;-71
2023/03/27 09:24:50;;;;;;;1.60;0.37;;;9.60;99.90;;;;;;20884277;28;20206;-71
2023/03/27 09:35:30;;;;;;;0.40;0.30;;;;;;;;;;20873207;28;20252;-71
2023/03/27 09:45:32;;;;;;;3.07;0.43;;;;;;;;;;20882716;28;20557;-70
2023/03/27 09:55:51;;;;;;;3.53;1.13;;;;;;;;;;20881458;28;20278;-69
2023/03/27 10:06:07;;;;;;;0.83;0.53;;;;;;;;;;20881042;28;20193;-70
2023/03/27 10:16:22;;;;;;;2.30;0.40;;;;;;;;;;20879362;28;20260;-70
2023/03/27 10:26:36;;;;;;;0.63;0.30;;;;;;;;;;20879875;28;20214;-69
2023/03/27 10:36:39;;;;;;;1.73;0.80;;;;;;;;;;20881201;28;20284;-69
2023/03/27 10:46:47;;;;;;;2.23;0.40;;;;;;;;;;20892880;28;20272;-70
2023/03/27 10:57:01;;;;;;;1.20;0.30;;;;;;;;;;20893071;28;20700;-70
2023/03/27 11:07:05;;;;;;;1.23;0.60;;;;;;;;;;20891620;28;20206;-69
2023/03/27 11:17:09;;;;;;;3.60;0.93;;;;;;;;;;20892216;28;20248;-71
2023/03/27 11:27:40;;;;;;;1.13;0.30;;;8.80;99.90;;;;;;20890960;28;20287;-71
2023/03/27 11:37:48;;;;;;;0.37;0.33;;;;;;;;;;20890170;28;20287;-70
2023/03/27 11:48:15;;;;;;;1.80;0.60;;;;;;;;;;20872852;28;20206;-68
2023/03/27 11:58:35;;;;;;;1.30;0.80;;;;;;;;;;20849795;28;20628;-68
2023/03/27 12:09:26;;;;;;;0.40;0.30;;;11.20;99.90;;;;;;20881443;28;20689;-68
2023/03/27 12:20:14;;;;;;;1.23;0.53;;;;;;;;;;20898637;28;20214;-68
2023/03/27 12:30:22;;;;;;;0.20;0.20;;;;;;;;;;20881034;28;20599;-69
2023/03/27 12:40:26;;;;;;;1.10;0.43;;;;;;;;;;20879366;28;20222;-68
2023/03/27 12:50:35;;;;;;;0.43;0.40;;;;;;;;;;20885865;28;20684;-67
2023/03/27 13:00:39;;;;;;;0.83;0.20;;;;;;;;;;20883357;28;20218;-67
2023/03/27 13:11:14;;;;;;;1.60;0.90;;;;;;;;;;20865019;28;20255;-67
2023/03/27 13:21:32;;;;;;;0.13;0.13;;;;;;;;;;20859468;28;20214;-67
2023/03/27 13:31:44;;;;;;;0.80;0.40;;;;;;;;;;20875538;28;20230;-67
2023/03/27 13:42:00;;;;;;;0.20;0.20;;;10.10;99.90;;;;;;20866845;28;20613;-68
2023/03/27 13:52:11;;;;;;;1.40;0.30;;;;;;;;;;20857470;28;20221;-68
2023/03/27 14:02:15;;;;;;;0.90;0.37;;;;;;;;;;20874387;28;20205;-68
2023/03/27 14:12:45;;;;;;;0.10;0.10;;;11.20;99.90;;;;;;20879335;28;20217;-67
2023/03/27 14:23:01;;;;;;;0.60;0.40;;;;;;;;;;20893787;28;20202;-67
2023/03/27 14:33:18;;;;;;;0.50;0.30;;;9.90;99.90;;;;;;20892511;28;20282;-68
2023/03/27 14:43:26;;;;;;;0.83;0.57;;;;;;;;;;20892213;28;20221;-67
2023/03/27 14:53:35;;;;;;;0.40;0.30;;;;;;;;;;20892225;28;20221;-66
2023/03/27 15:03:49;;;;;;;0.40;0.40;;;;;;;;;;20890739;28;20563;-67
2023/03/27 15:13:51;;;;;;;1.67;0.60;;;9.30;99.90;;;;;;20890530;28;20209;-67
2023/03/27 15:24:09;;;;;;;0.53;0.40;;;;;;;;;;20889466;28;20264;-67
2023/03/27 15:34:19;;;;;;;4.43;0.50;;;;;;;;;;20889558;28;20283;-67
2023/03/27 15:44:23;;;;;;;0.83;0.37;;;;;;;;;;20879175;22;20390;-68
2023/03/27 15:54:29;;;;;;;2.63;0.50;;;;;;;;;;20825178;28;20588;-68
2023/03/27 16:04:40;;;;;;;0.60;0.30;;;10.10;99.90;;;;;;20825252;28;20276;-66
2023/03/27 16:14:47;;;;;;;0.20;0.20;;;10.00;99.90;;;;;;20816247;28;20716;-68
2023/03/27 16:24:49;;;;;;;1.23;0.20;;;;;;;;;;20818743;28;20214;-67
2023/03/27 16:34:51;;;;;;;2.57;0.63;;;;;;;;;;20813896;28;20222;-68
2023/03/27 16:44:52;;;;;;;0.60;0.40;;;10.10;99.90;;;;;;20807270;28;20265;-68
2023/03/27 16:54:54;;;;;;;1.07;0.33;;;;;;;;;;20795918;28;20218;-68
2023/03/27 17:04:56;;;;;;;0.30;0.30;;;;;;;;;;20820347;28;20291;-68
2023/03/27 17:14:58;;;;;;;0.70;0.30;;;;;;;;;;20815580;28;20242;-68
2023/03/27 17:25:02;;;;;;;0.53;0.33;;;;;;;;;;20816653;28;20692;-69
2023/03/27 17:35:04;;;;;;;0.20;0.20;;;;;;;;;;20817884;28;20218;-69
2023/03/27 17:45:05;;;;;;;0.77;0.20;;;;;;;;;;20816295;28;20669;-69
2023/03/27 17:55:07;;;;;;;1.63;0.70;;;;;;;;;;20830823;28;20304;-68
2023/03/27 18:05:09;;;;;;;0.53;0.30;;;;;;;;;;20842531;28;20280;-68
2023/03/27 18:15:11;;;;;;;0.97;0.47;;;;;;;;;;20842722;28;20234;-68
2023/03/27 18:25:13;;;;;;;0.47;0.20;;;;;;;;;;20828102;28;20615;-68
2023/03/27 18:35:16;;;;;;;0.90;0.20;;;;;;;;;;20843884;28;20681;-68
2023/03/27 18:45:18;;;;;;;1.03;0.30;;;;;;;;;;20841660;28;20215;-68
2023/03/27 18:55:21;;;;;;;0.10;0.10;;;;;;;;;;20844234;28;20214;-68
2023/03/27 19:05:22;;;;;;;0.20;0.17;;;;;;;;;;20839909;28;20272;-68
2023/03/27 19:15:24;;;;;;;1.53;0.40;;;;;;;;;;20840453;28;20207;-68
2023/03/27 19:25:55;;;;;;;0.40;0.20;;;;;;;;;;20767751;28;20215;-68
2023/03/27 19:35:57;;;;;;;0.40;0.30;;;;;;;;;;20835058;28;20283;-68
2023/03/27 19:45:59;;;;;;;0.43;0.37;;;;;;;;;;20834773;28;20218;-68
2023/03/27 19:56:01;;;;;;;0.40;0.20;;;;;;;;;;20833659;28;20203;-68
2023/03/27 20:06:08;;;;;;;0.30;0.20;;;;;;;;;;20816489;28;20221;-67
2023/03/27 20:16:13;;;;;;;0.73;0.20;;;;;;;;;;20832870;28;20214;-67
2023/03/27 20:26:15;;;;;;;0.77;0.30;;;;;;;;;;20814816;28;20202;-68
2023/03/27 20:36:23;;;;;;;0.20;0.20;;;;;;;;;;20813817;28;20265;-68
2023/03/27 20:46:29;;;;;;;1.47;0.30;;;;;;;;;;20812815;28;20288;-70
2023/03/27 20:56:31;;;;;;;0.47;0.23;;;;;;;;;;20830690;28;20650;-68
2023/03/27 21:06:32;;;;;;;0.10;0.10;;;;;;;;;;20830298;28;20615;-68
2023/03/27 21:16:34;;;;;;;0.30;0.10;;;;;;;;;;20829982;28;20743;-69
2023/03/27 21:26:36;;;;;;;0.60;0.20;;;;;;;;;;20829779;28;20214;-69
2023/03/27 21:36:38;;;;;;;0.37;0.20;;;;;;;;;;20828946;28;20260;-69
2023/03/27 21:46:39;;;;;;;0.33;0.27;;;;;;;;;;20831404;22;20655;-83
2023/03/27 21:56:41;;;;;;;0.93;0.30;;;;;;;;;;20821338;28;20257;-84
2023/03/27 22:06:43;;;;;;;0.67;0.30;;;;;;;;;;20787168;28;20214;-81
2023/03/27 22:16:46;;;;;;;0.63;0.30;;;;;;;;;;20799345;28;20253;-82
2023/03/27 22:26:48;;;;;;;1.90;0.23;;;;;;;;;;20779979;28;20633;-80
2023/03/27 22:36:50;;;;;;;0.47;0.20;;;;;;;;;;20798474;28;20238;-82
2023/03/27 22:46:52;;;;;;;1.20;0.50;;;;;;;;;;20787765;28;20284;-84
2023/03/27 22:56:54;;;;;;;0.50;0.20;;;;;;;;;;20788386;28;20288;-81
2023/03/27 23:06:56;;;;;;;0.83;0.20;;;;;;;;;;20818274;28;20211;-81
2023/03/27 23:16:59;;;;;;;0.60;0.47;;;;;;;;;;20835737;28;20293;-80
2023/03/27 23:27:01;;;;;;;0.20;0.20;;;;;;;;;;20818445;28;20211;-83
2023/03/27 23:37:02;;;;;;;0.40;0.40;;;;;;;;;;20806902;28;20230;-81
2023/03/27 23:47:04;;;;;;;1.50;0.30;;;;;;;;;;20798932;28;20280;-80
2023/03/27 23:57:06;;;;;;;0.33;0.20;;;;;;;;;;20833241;28;20237;-81
